createdAt,value
2023-02-11T00:01:56.814Z,34.05
2023-02-11T00:04:23.808Z,39.00
2023-02-11T00:06:50.917Z,42.38
2023-02-11T00:09:17.790Z,28.05
2023-02-11T00:11:44.667Z,31.58
2023-02-11T00:14:12.251Z,39.17
2023-02-11T00:16:40.837Z,40.65
2023-02-11T00:19:07.785Z,40.75
2023-02-11T00:21:36.292Z,33.45
2023-02-11T00:24:03.468Z,42.03
2023-02-11T00:26:34.342Z,41.88
2023-02-11T00:29:02.332Z,32.83
2023-02-11T00:31:29.723Z,39.08
2023-02-11T00:33:56.653Z,39.92
2023-02-11T00:36:26.045Z,45.08
2023-02-11T00:38:55.018Z,47.60
2023-02-11T00:41:23.031Z,45.47
2023-02-11T00:43:50.928Z,44.20
2023-02-11T00:46:17.903Z,30.90
2023-02-11T00:48:44.977Z,38.78
2023-02-11T00:51:12.724Z,50.88
2023-02-11T00:53:39.892Z,51.22
2023-02-11T00:56:07.991Z,48.65
2023-02-11T00:58:35.516Z,42.90
2023-02-11T01:01:02.612Z,51.95
2023-02-11T01:03:29.588Z,41.00
2023-02-11T01:05:56.725Z,52.05
2023-02-11T01:08:23.707Z,46.58
2023-02-11T01:11:14.907Z,46.67
2023-02-11T01:13:42.621Z,56.33
2023-02-11T01:16:11.180Z,49.05
2023-02-11T01:18:38.648Z,53.83
2023-02-11T01:21:06.094Z,49.88
2023-02-11T01:23:33.049Z,51.67
2023-02-11T01:26:00.142Z,41.13
2023-02-11T01:28:29.373Z,50.97
2023-02-11T01:30:56.733Z,44.45
2023-02-11T01:33:24.818Z,47.50
2023-02-11T01:35:52.422Z,42.62
2023-02-11T01:38:25.844Z,47.28
2023-02-11T01:40:56.265Z,39.08
2023-02-11T01:43:25.530Z,55.55
2023-02-11T01:46:02.713Z,43.42
2023-02-11T01:48:43.458Z,35.13
2023-02-11T01:51:18.687Z,40.00
2023-02-11T01:54:06.684Z,38.97
2023-02-11T01:56:56.391Z,32.17
2023-02-11T02:02:01.493Z,43.33
2023-02-11T02:04:33.664Z,44.13
2023-02-11T02:07:06.934Z,49.88
2023-02-11T02:09:41.377Z,35.33
2023-02-11T02:12:09.243Z,42.03
2023-02-11T02:14:40.892Z,45.30
2023-02-11T02:17:16.676Z,42.90
2023-02-11T02:20:09.457Z,36.15
2023-02-11T02:23:04.312Z,42.55
2023-02-11T02:26:00.246Z,46.53
2023-02-11T02:28:58.695Z,43.90
2023-02-11T02:31:33.831Z,38.25
2023-02-11T02:34:16.121Z,35.38
2023-02-11T02:36:55.183Z,39.47
2023-02-11T02:39:27.727Z,31.87
2023-02-11T02:41:57.016Z,44.33
2023-02-11T02:44:24.412Z,41.90
2023-02-11T02:46:51.592Z,39.08
2023-02-11T02:49:19.701Z,41.47
2023-02-11T02:52:10.102Z,40.95
2023-02-11T02:54:37.304Z,43.20
2023-02-11T02:57:49.252Z,38.08
2023-02-11T03:00:25.293Z,41.35
2023-02-11T03:03:16.409Z,43.35
2023-02-11T03:05:43.248Z,36.53
2023-02-11T03:08:16.938Z,35.05
2023-02-11T03:10:51.551Z,52.17
2023-02-11T03:13:22.728Z,39.85
2023-02-11T03:15:53.775Z,48.97
2023-02-11T03:18:26.427Z,43.30
2023-02-11T03:20:55.108Z,43.03
2023-02-11T03:23:36.915Z,50.03
2023-02-11T03:26:12.622Z,41.10
2023-02-11T03:29:04.009Z,42.97
2023-02-11T03:31:37.014Z,41.25
2023-02-11T03:34:12.862Z,43.80
2023-02-11T03:37:02.788Z,49.40
2023-02-11T03:39:36.218Z,42.62
2023-02-11T03:42:05.661Z,38.80
2023-02-11T03:44:42.196Z,26.65
2023-02-11T03:47:12.700Z,34.53
2023-02-11T03:49:42.218Z,31.58
2023-02-11T03:52:11.621Z,38.25
2023-02-11T03:54:43.009Z,37.55
2023-02-11T03:57:10.206Z,36.90
2023-02-11T03:59:55.575Z,39.50
2023-02-11T04:02:30.508Z,35.83
2023-02-11T04:04:58.259Z,37.47
2023-02-11T04:07:25.799Z,40.20
2023-02-11T04:09:53.116Z,47.62
2023-02-11T04:12:20.132Z,34.92
2023-02-11T04:14:47.023Z,40.08
2023-02-11T04:17:14.058Z,34.90
2023-02-11T04:19:41.339Z,42.95
2023-02-11T04:22:08.941Z,34.90
2023-02-11T04:24:35.863Z,36.10
2023-02-11T04:27:02.944Z,40.60
2023-02-11T04:29:30.149Z,38.90
2023-02-11T04:31:57.203Z,28.80
2023-02-11T04:34:24.782Z,37.75
2023-02-11T04:36:51.770Z,33.53
2023-02-11T04:39:19.022Z,40.50
2023-02-11T04:41:46.055Z,29.00
2023-02-11T04:44:13.004Z,35.17
2023-02-11T04:46:39.868Z,31.52
2023-02-11T04:49:06.863Z,28.23
2023-02-11T04:51:33.851Z,33.03
2023-02-11T04:54:00.829Z,28.80
2023-02-11T04:56:29.291Z,36.75
2023-02-11T04:58:56.275Z,41.03
2023-02-11T05:01:23.622Z,29.80
2023-02-11T05:03:51.375Z,37.38
2023-02-11T05:06:18.494Z,34.08
2023-02-11T05:08:45.694Z,35.85
2023-02-11T05:11:18.828Z,38.75
2023-02-11T05:13:46.648Z,32.80
2023-02-11T05:16:15.058Z,34.92
2023-02-11T05:18:43.631Z,34.22
2023-02-11T05:21:14.092Z,35.30
2023-02-11T05:23:41.511Z,34.13
2023-02-11T05:26:09.264Z,32.10
2023-02-11T05:28:36.977Z,35.42
2023-02-11T05:31:04.410Z,38.03
2023-02-11T05:33:32.214Z,36.75
2023-02-11T05:36:04.729Z,33.22
2023-02-11T05:38:31.941Z,43.83
2023-02-11T05:40:58.971Z,45.83
2023-02-11T05:43:26.096Z,39.17
2023-02-11T05:45:53.520Z,42.75
2023-02-11T05:48:20.577Z,47.88
2023-02-11T05:50:47.571Z,46.42
2023-02-11T05:53:14.524Z,42.92
2023-02-11T05:55:41.717Z,46.40
2023-02-11T05:58:08.811Z,51.63
2023-02-11T06:00:36.140Z,47.60
2023-02-11T06:03:04.752Z,44.05
2023-02-11T06:05:32.374Z,49.30
2023-02-11T06:07:59.500Z,45.00
2023-02-11T06:10:26.612Z,49.00
2023-02-11T06:12:53.825Z,46.40
2023-02-11T06:15:21.227Z,51.60
2023-02-11T06:17:48.189Z,37.20
2023-02-11T06:20:15.685Z,36.85
2023-02-11T06:22:42.585Z,33.53
2023-02-11T06:25:11.222Z,37.17
2023-02-11T06:27:40.030Z,38.58
2023-02-11T06:30:07.850Z,35.03
2023-02-11T06:32:43.935Z,48.10
2023-02-11T06:35:12.698Z,35.53
2023-02-11T06:37:40.833Z,49.85
2023-02-11T06:40:08.054Z,41.15
2023-02-11T06:42:38.391Z,48.45
2023-02-11T06:45:21.533Z,41.70
2023-02-11T06:48:20.038Z,40.58
2023-02-11T06:50:49.336Z,32.92
2023-02-11T06:53:28.825Z,31.48
2023-02-11T06:56:20.150Z,36.78
2023-02-11T06:59:08.622Z,33.08
2023-02-11T07:01:52.414Z,58.92
2023-02-11T07:07:39.758Z,51.65
2023-02-11T07:10:24.122Z,86.85
2023-02-11T07:16:57.501Z,82.07
2023-02-11T07:20:03.335Z,98.53
2023-02-11T07:23:58.106Z,120.55
2023-02-11T07:26:53.463Z,116.07
2023-02-11T07:35:33.077Z,133.73
2023-02-11T07:38:00.123Z,135.27
2023-02-11T07:40:31.841Z,134.15
2023-02-11T07:43:03.773Z,125.47
2023-02-11T07:45:30.795Z,123.97
2023-02-11T07:47:58.038Z,92.85
2023-02-11T07:50:24.916Z,88.18
2023-02-11T07:52:52.772Z,72.78
2023-02-11T07:55:19.604Z,62.45
2023-02-11T07:57:46.502Z,55.28
2023-02-11T08:00:14.196Z,52.38
2023-02-11T08:02:41.216Z,54.35
2023-02-11T08:05:08.328Z,49.90
2023-02-11T08:07:35.184Z,54.45
2023-02-11T08:10:02.411Z,56.10
2023-02-11T08:12:29.350Z,49.63
2023-02-11T08:14:56.645Z,55.88
2023-02-11T08:17:23.492Z,40.97
2023-02-11T08:19:50.425Z,43.15
2023-02-11T08:22:17.297Z,44.47
2023-02-11T08:24:44.289Z,43.42
2023-02-11T08:27:11.141Z,39.72
2023-02-11T08:29:38.001Z,47.20
2023-02-11T08:32:05.162Z,47.60
2023-02-11T08:34:32.092Z,49.30
2023-02-11T08:36:58.966Z,49.55
2023-02-11T08:39:28.349Z,55.67
2023-02-11T08:41:57.018Z,53.25
2023-02-11T08:44:24.477Z,61.88
2023-02-11T08:46:51.838Z,63.67
2023-02-11T08:49:18.976Z,70.87
2023-02-11T08:51:46.347Z,55.75
2023-02-11T08:54:14.523Z,66.72
2023-02-11T08:56:41.667Z,69.85
2023-02-11T08:59:11.441Z,73.75
2023-02-11T09:04:05.699Z,73.40
2023-02-11T09:06:32.737Z,68.82
2023-02-11T09:08:59.937Z,67.87
2023-02-11T09:11:30.422Z,87.05
2023-02-11T09:13:57.811Z,70.00
2023-02-11T09:16:28.438Z,65.07
2023-02-11T09:18:57.776Z,68.47
2023-02-11T09:21:25.021Z,75.40
2023-02-11T09:23:51.935Z,63.22
2023-02-11T09:26:22.540Z,62.05
2023-02-11T09:28:50.411Z,59.67
2023-02-11T09:31:20.882Z,63.55
2023-02-11T09:33:50.560Z,67.75
2023-02-11T09:36:23.387Z,66.50
2023-02-11T09:38:50.668Z,84.32
2023-02-11T09:41:23.276Z,84.45
2023-02-11T09:43:53.371Z,82.07
2023-02-11T09:46:22.030Z,66.78
2023-02-11T09:48:52.204Z,65.03
2023-02-11T09:51:26.820Z,55.58
2023-02-11T09:54:00.625Z,54.60
2023-02-11T09:56:28.780Z,48.78
2023-02-11T09:58:55.704Z,52.70
2023-02-11T10:01:34.730Z,47.95
2023-02-11T10:04:23.208Z,58.03
2023-02-11T10:06:57.851Z,53.80
2023-02-11T10:09:33.564Z,51.53
2023-02-11T10:12:28.229Z,54.30
2023-02-11T10:15:06.148Z,47.13
2023-02-11T10:18:05.415Z,53.45
2023-02-11T10:20:39.315Z,54.28
2023-02-11T10:23:15.997Z,49.60
2023-02-11T10:25:50.990Z,48.17
2023-02-11T10:28:20.916Z,48.13
2023-02-11T10:33:26.456Z,46.80
2023-02-11T10:35:53.405Z,55.42
2023-02-11T10:38:20.455Z,51.33
2023-02-11T10:40:47.385Z,53.30
2023-02-11T10:43:17.188Z,51.47
2023-02-11T10:48:40.771Z,52.38
2023-02-11T10:51:14.578Z,52.30
2023-02-11T10:53:42.260Z,49.08
2023-02-11T10:56:13.019Z,49.92
2023-02-11T10:58:54.578Z,50.70
2023-02-11T11:01:24.746Z,51.53
2023-02-11T11:03:53.212Z,52.13
2023-02-11T11:06:32.709Z,47.53
2023-02-11T11:08:59.884Z,45.08
2023-02-11T11:11:27.618Z,47.88
2023-02-11T11:13:54.359Z,46.78
2023-02-11T11:16:26.305Z,47.67
2023-02-11T11:19:14.775Z,44.60
2023-02-11T11:21:51.044Z,41.00
2023-02-11T11:24:20.823Z,40.17
2023-02-11T11:26:53.908Z,38.75
2023-02-11T11:29:35.939Z,43.30
2023-02-11T11:32:27.859Z,45.83
2023-02-11T11:34:57.326Z,44.17
2023-02-11T11:37:28.209Z,43.95
2023-02-11T11:40:24.146Z,40.25
2023-02-11T11:43:23.061Z,37.80
2023-02-11T11:45:58.845Z,34.28
2023-02-11T11:48:31.612Z,33.05
2023-02-11T11:51:11.948Z,34.92
2023-02-11T11:53:48.558Z,41.83
2023-02-11T11:56:39.930Z,37.75
2023-02-11T11:59:18.803Z,33.88
2023-02-11T12:02:08.573Z,35.30
2023-02-11T12:07:26.057Z,33.10
2023-02-11T12:10:21.904Z,37.67
2023-02-11T12:12:57.616Z,37.63
2023-02-11T12:15:39.596Z,32.60
2023-02-11T12:18:12.637Z,34.25
2023-02-11T12:21:13.584Z,35.28
2023-02-11T12:24:07.864Z,33.97
2023-02-11T12:27:03.643Z,34.97
2023-02-11T12:29:37.937Z,35.03
2023-02-11T12:32:22.932Z,37.55
2023-02-11T12:35:00.856Z,34.55
2023-02-11T12:37:49.389Z,41.10
2023-02-11T12:40:53.301Z,40.33
2023-02-11T12:43:34.088Z,35.58
2023-02-11T12:46:15.242Z,36.20
2023-02-11T12:48:55.560Z,40.42
2023-02-11T12:51:32.250Z,38.20
2023-02-11T12:54:11.807Z,33.13
2023-02-11T12:56:59.576Z,33.17
2023-02-11T12:59:44.027Z,37.67
2023-02-11T13:02:42.214Z,34.55
2023-02-11T13:05:20.150Z,37.42
2023-02-11T13:07:49.786Z,36.35
2023-02-11T13:10:34.347Z,29.92
2023-02-11T13:13:17.809Z,34.90
2023-02-11T13:15:51.457Z,34.85
2023-02-11T13:18:32.754Z,41.00
2023-02-11T13:21:53.079Z,35.93
2023-02-11T13:24:34.645Z,36.95
2023-02-11T13:27:33.476Z,31.35
2023-02-11T13:30:04.422Z,33.85
2023-02-11T13:32:56.244Z,37.08
2023-02-11T13:35:41.326Z,42.58
2023-02-11T13:38:28.000Z,31.27
2023-02-11T13:41:21.599Z,34.30
2023-02-11T13:44:04.362Z,33.58
2023-02-11T13:47:05.080Z,36.95
2023-02-11T13:49:41.769Z,34.28
2023-02-11T13:52:37.605Z,34.75
2023-02-11T13:55:23.404Z,31.90
2023-02-11T13:58:08.656Z,38.03
2023-02-11T14:00:36.268Z,33.33
2023-02-11T14:03:30.627Z,32.33
2023-02-11T14:06:28.572Z,33.22
2023-02-11T14:09:14.634Z,33.63
2023-02-11T14:11:41.911Z,34.50
2023-02-11T14:14:29.348Z,35.63
2023-02-11T14:16:59.518Z,40.78
2023-02-11T14:19:38.553Z,32.17
2023-02-11T14:22:09.711Z,34.73
2023-02-11T14:24:36.597Z,34.38
2023-02-11T14:27:07.999Z,36.38
2023-02-11T14:29:51.489Z,31.87
2023-02-11T14:32:41.193Z,31.70
2023-02-11T14:35:39.437Z,34.35
2023-02-11T14:38:45.552Z,31.60
2023-02-11T14:41:29.950Z,33.47
2023-02-11T14:44:04.904Z,37.92
2023-02-11T14:46:36.598Z,37.88
2023-02-11T14:49:25.246Z,36.58
2023-02-11T14:51:54.629Z,38.03
2023-02-11T14:54:25.452Z,37.38
2023-02-11T14:57:15.303Z,36.58
2023-02-11T15:02:34.824Z,34.45
2023-02-11T15:05:27.816Z,30.52
2023-02-11T15:08:03.113Z,33.22
2023-02-11T15:10:48.348Z,36.28
2023-02-11T15:13:22.276Z,38.80
2023-02-11T15:15:54.011Z,38.28
2023-02-11T15:18:24.575Z,34.78
2023-02-11T15:20:52.549Z,32.13
2023-02-11T15:23:27.301Z,34.72
2023-02-11T15:25:56.556Z,37.58
2023-02-11T15:28:30.533Z,34.80
2023-02-11T15:31:04.236Z,32.83
2023-02-11T15:33:33.141Z,37.38
2023-02-11T15:36:02.113Z,33.85
2023-02-11T15:38:30.552Z,41.70
2023-02-11T15:41:01.096Z,37.20
2023-02-11T15:43:48.646Z,34.40
2023-02-11T15:46:19.153Z,37.80
2023-02-11T15:48:50.578Z,33.95
2023-02-11T15:51:31.354Z,38.25
2023-02-11T15:54:00.935Z,38.72
2023-02-11T15:56:43.603Z,39.35
2023-02-11T15:59:47.333Z,37.03
2023-02-11T16:02:26.461Z,30.62
2023-02-11T16:05:03.946Z,37.92
2023-02-11T16:07:41.961Z,37.15
2023-02-11T16:10:36.700Z,35.63
2023-02-11T16:13:19.559Z,32.05
2023-02-11T16:15:54.398Z,40.40
2023-02-11T16:18:37.287Z,38.88
2023-02-11T16:21:08.628Z,40.90
2023-02-11T16:23:42.298Z,35.17
2023-02-11T16:26:20.835Z,37.78
2023-02-11T16:28:47.918Z,41.75
2023-02-11T16:31:15.170Z,45.28
2023-02-11T16:33:42.161Z,38.72
2023-02-11T16:36:14.068Z,46.72
2023-02-11T16:38:41.061Z,79.25
2023-02-11T16:41:09.082Z,66.00
2023-02-11T16:43:36.004Z,66.65
2023-02-11T16:46:04.174Z,71.60
2023-02-11T16:48:35.010Z,51.53
2023-02-11T16:51:02.262Z,48.85
2023-02-11T16:53:29.190Z,65.43
2023-02-11T16:55:56.080Z,59.75
2023-02-11T16:58:24.280Z,89.78
2023-02-11T17:00:52.054Z,68.93
2023-02-11T17:03:27.425Z,75.00
2023-02-11T17:05:56.143Z,49.92
2023-02-11T17:08:23.360Z,56.97
2023-02-11T17:10:50.567Z,61.28
2023-02-11T17:13:17.630Z,59.72
2023-02-11T17:15:44.581Z,53.40
2023-02-11T17:18:14.515Z,51.35
2023-02-11T17:20:42.197Z,55.22
2023-02-11T17:23:09.633Z,47.38
2023-02-11T17:25:39.352Z,55.17
2023-02-11T17:28:07.288Z,52.80
2023-02-11T17:30:34.478Z,98.53
2023-02-11T17:33:01.478Z,121.50
2023-02-11T17:35:28.384Z,121.25
2023-02-11T17:37:55.348Z,108.68
2023-02-11T17:40:22.263Z,127.75
2023-02-11T17:42:50.446Z,140.18
2023-02-11T17:45:17.567Z,123.13
2023-02-11T17:47:45.215Z,134.82
2023-02-11T17:50:12.201Z,119.28
2023-02-11T17:52:39.166Z,110.03
2023-02-11T17:55:07.046Z,122.95
2023-02-11T17:57:34.655Z,133.82
2023-02-11T18:00:01.757Z,130.70
2023-02-11T18:02:28.637Z,120.87
2023-02-11T18:04:57.695Z,133.77
2023-02-11T18:07:26.104Z,162.15
2023-02-11T18:09:53.330Z,166.12
2023-02-11T18:12:25.385Z,173.45
2023-02-11T18:14:56.854Z,171.55
2023-02-11T18:17:24.876Z,168.62
2023-02-11T18:19:55.128Z,197.30
2023-02-11T18:22:21.999Z,156.87
2023-02-11T18:24:53.266Z,156.00
2023-02-11T18:27:21.601Z,187.00
2023-02-11T18:29:48.626Z,192.98
2023-02-11T18:32:15.678Z,181.32
2023-02-11T18:34:43.225Z,177.60
2023-02-11T18:37:10.514Z,168.65
2023-02-11T18:39:37.673Z,163.35
2023-02-11T18:42:04.747Z,172.25
2023-02-11T18:44:31.770Z,155.50
2023-02-11T18:46:58.709Z,150.90
2023-02-11T18:49:25.604Z,138.32
2023-02-11T18:51:53.658Z,137.30
2023-02-11T18:54:20.504Z,127.55
2023-02-11T18:56:47.407Z,127.30
2023-02-11T18:59:16.252Z,142.25
2023-02-11T19:01:47.041Z,130.90
2023-02-11T19:04:19.150Z,133.75
2023-02-11T19:06:51.964Z,146.65
2023-02-11T19:09:20.300Z,129.77
2023-02-11T19:11:47.436Z,119.90
2023-02-11T19:14:35.509Z,140.80
2023-02-11T19:17:06.789Z,137.90
2023-02-11T19:19:36.360Z,126.15
2023-02-11T19:22:08.474Z,120.07
2023-02-11T19:24:37.537Z,132.93
2023-02-11T19:27:05.282Z,134.80
2023-02-11T19:29:35.370Z,140.12
2023-02-11T19:32:04.182Z,128.52
2023-02-11T19:34:31.152Z,121.07
2023-02-11T19:37:00.918Z,106.43
2023-02-11T19:39:27.973Z,108.07
2023-02-11T19:41:56.257Z,91.97
2023-02-11T19:44:23.160Z,80.70
2023-02-11T19:46:53.848Z,72.07
2023-02-11T19:49:24.660Z,72.20
2023-02-11T19:51:52.922Z,69.40
2023-02-11T19:54:20.888Z,54.28
2023-02-11T19:56:48.961Z,74.75
2023-02-11T19:59:17.382Z,82.25
2023-02-11T20:01:47.803Z,71.68
2023-02-11T20:04:17.513Z,74.62
2023-02-11T20:06:54.127Z,76.45
2023-02-11T20:09:21.886Z,69.37
2023-02-11T20:11:49.520Z,74.07
2023-02-11T20:14:16.457Z,79.60
2023-02-11T20:16:49.047Z,86.97
2023-02-11T20:19:20.293Z,72.80
2023-02-11T20:21:48.953Z,81.53
2023-02-11T20:24:17.357Z,78.70
2023-02-11T20:26:45.994Z,75.15
2023-02-11T20:29:13.101Z,71.82
2023-02-11T20:31:40.231Z,71.80
2023-02-11T20:34:07.344Z,70.60
2023-02-11T20:36:37.662Z,68.85
2023-02-11T20:39:06.322Z,73.30
2023-02-11T20:41:35.796Z,78.95
2023-02-11T20:44:05.956Z,69.70
2023-02-11T20:46:34.350Z,69.35
2023-02-11T20:49:01.948Z,59.60
2023-02-11T20:51:31.215Z,58.70
2023-02-11T20:53:58.871Z,55.97
2023-02-11T20:56:28.969Z,41.75
2023-02-11T20:58:58.870Z,30.50
2023-02-11T21:03:59.112Z,25.62
2023-02-11T21:06:27.681Z,20.67
2023-02-11T21:08:54.559Z,26.62
2023-02-11T21:11:21.533Z,23.77
2023-02-11T21:13:48.824Z,28.62
2023-02-11T21:16:17.827Z,30.20
2023-02-11T21:18:44.722Z,29.60
2023-02-11T21:21:11.753Z,30.23
2023-02-11T21:23:39.993Z,27.90
2023-02-11T21:26:08.282Z,26.33
2023-02-11T21:28:36.028Z,25.95
2023-02-11T21:31:05.778Z,26.65
2023-02-11T21:33:35.701Z,23.50
2023-02-11T21:38:32.964Z,25.20
2023-02-11T21:41:04.911Z,27.05
2023-02-11T21:43:32.272Z,29.80
2023-02-11T21:45:59.435Z,30.30
2023-02-11T21:48:27.218Z,27.55
2023-02-11T21:50:54.445Z,28.77
2023-02-11T21:53:21.363Z,29.60
2023-02-11T21:55:49.456Z,30.37
2023-02-11T21:58:16.320Z,28.42
2023-02-11T22:00:43.335Z,28.15
2023-02-11T22:03:11.114Z,29.25
2023-02-11T22:05:40.704Z,29.95
2023-02-11T22:08:09.353Z,27.70
2023-02-11T22:10:36.338Z,28.98
2023-02-11T22:13:03.297Z,27.65
2023-02-11T22:15:30.204Z,24.85
2023-02-11T22:17:57.127Z,30.98
2023-02-11T22:20:24.071Z,27.50
2023-02-11T22:22:51.082Z,23.20
2023-02-11T22:25:18.177Z,43.67
2023-02-11T22:27:45.083Z,87.53
2023-02-11T22:30:12.485Z,59.85
2023-02-11T22:32:40.415Z,48.63
2023-02-11T22:35:07.302Z,52.92
2023-02-11T22:37:34.206Z,51.67
2023-02-11T22:40:03.230Z,31.67
2023-02-11T22:42:30.166Z,34.40
2023-02-11T22:44:56.968Z,32.75
2023-02-11T22:47:23.814Z,36.65
2023-02-11T22:49:50.716Z,38.15
2023-02-11T22:52:17.867Z,37.75
2023-02-11T22:54:44.775Z,24.50
2023-02-11T22:57:11.639Z,20.40
2023-02-11T22:59:38.494Z,18.52
2023-02-11T23:02:05.550Z,21.45
2023-02-11T23:04:32.573Z,23.65
2023-02-11T23:06:59.461Z,32.20
2023-02-11T23:09:26.341Z,43.50
2023-02-11T23:11:54.589Z,44.60
2023-02-11T23:14:21.951Z,51.75
2023-02-11T23:16:51.534Z,34.60
2023-02-11T23:19:18.885Z,32.38
2023-02-11T23:21:45.853Z,28.25
2023-02-11T23:24:14.565Z,28.58
2023-02-11T23:26:42.999Z,33.05
2023-02-11T23:29:10.992Z,26.58
2023-02-11T23:31:40.544Z,38.95
2023-02-11T23:34:08.562Z,41.05
2023-02-11T23:36:35.814Z,28.48
2023-02-11T23:39:03.289Z,36.08
2023-02-11T23:41:30.136Z,32.83
2023-02-11T23:43:58.219Z,33.00
2023-02-11T23:46:27.081Z,30.25
2023-02-11T23:48:54.176Z,34.08
2023-02-11T23:51:21.584Z,28.73
2023-02-11T23:53:52.782Z,25.20
2023-02-11T23:56:24.919Z,31.52
2023-02-11T23:58:53.847Z,28.25
